RCFNRCSS

Guest
Details From RCFN - FENGNIN
To RCSS - Sungshan
Flight Number -
Tags generated
Created
Modified
Stats Distance 149 nm / 275 km
Max Altitude 10,400 ft / 3,170 m
Waypoints 3
Social Downloads 2
Likes 0
Share VATSIM

Download

Looking for another format? Having issues loading an existing format? Contact us
Advertisement - Login to hide

Notes

Basic altitude profile: - Ascent Rate: 2500ft/min - Ascent Speed: 250kts - Cruise Altitude: 35000ft - Cruise Speed: 420kts - Descent Rate: 1500ft/min - Descent Speed: 250kts Options: - Use NATs: yes - Use PACOTS: yes - Use low airways: yes - Use high airways: yes

Route

RCFN PILOX RCSS

ID Type Via Altitude Latitude Longitude Leg Dist Tot Dist Heading (true) Name
O RCFN APT - 0 ft / 0 m 22.75487˚ 121.10165˚ - 0 nm - FENGNIN
PILOX FIX - 10,400 ft / 3,170 m 24.41500˚ 121.02472˚ 99 nm 99 nm 358° / 358° -
O RCSS APT - 0 ft / 0 m 25.06959˚ 121.55257˚ 48 nm 148 nm 36° / 36° Sungshan

Altitude Profile

Advertisement - Login to hide

RCFN

Details ICAO RCFN (TTT)
Name FENGNIN
Region Republic of China (Taiwan)
Timezone Asia/Taipei (UTC+8.0)
Stats Elevation 143 ft / 44 m (AMSL)
Location 22.754872° 121.101650°
Runways 1
Magnetic Variation 3.903° W

METAR

RCFN 170100Z 01014G25KT 330V050 9999 FEW025 SCT070 18/10 Q1025 NOSIG RMK A3029

Decode

TAF

TAF TAF RCFN 162300Z 1700/1724 02012G25KT 9999 FEW012 BKN032 TEMPO 1703/1709 05013G28KT

Decode

Departure Runways

ID Width Length Bearing (true) Bearing (mag) Surface Threshold Offset Overrun Length
04 148 ft / 45 m 8,019 ft / 2,444 m 38.51° 42.41° Asphalt 0 ft / 0 m 750 ft / 229 m
22 148 ft / 45 m 8,019 ft / 2,444 m 218.52° 222.42° Asphalt 0 ft / 0 m 745 ft / 227 m

RCSS

Details ICAO RCSS (TSA)
Name Sungshan
Region Republic of China (Taiwan)
Timezone Asia/Taipei (UTC+8.0)
Stats Elevation 18 ft / 5 m (AMSL)
Location 25.069586° 121.552570°
Runways 1
Magnetic Variation 4.481° W

METAR

RCSS 170100Z 09006KT 9999 -DZ FEW012 BKN035 BKN060 13/11 Q1028 NOSIG RMK A3038

Decode

TAF

TAF RCSS 162300Z 1700/1724 09012KT 9000 FEW010 BKN025 BKN050 TEMPO 1700/1706 08017KT 5000 RA FEW010 BKN015 BKN040

Decode

Destination Runways

ID Width Length Bearing (true) Bearing (mag) Surface Threshold Offset Overrun Length
10 197 ft / 60 m 8,566 ft / 2,611 m 92.26° 96.74° Asphalt 0 ft / 0 m 197 ft / 60 m
28 197 ft / 60 m 8,566 ft / 2,611 m 272.27° 276.75° Asphalt 0 ft / 0 m 525 ft / 160 m

Approach Navaids

Runway Type Ident Frequency Range Bearing (true) Bearing (mag) Slope Elevation
10 Localiser ITSG 108.90 MHz 18 nm / 33 km 92.23° 96.71° - 13 ft / 4 m (AMSL)
10 Glidescope ITSG 108.90 MHz 10 nm / 19 km 92.27° 96.75° 3.00° 12 ft / 4 m (AMSL)
10 DME ITSG 108.90 MHz 18 nm / 33 km - - - 18 ft / 5 m (AMSL)
28 Localiser ITLU 108.10 MHz 18 nm / 33 km 264.28° 268.76° - 18 ft / 5 m (AMSL)
28 DME ITLU 108.10 MHz 18 nm / 33 km - - - 18 ft / 5 m (AMSL)